Time;durP1;ratioP1;P1;durP2;ratioP2;P2;SDS_P1;SDS_P2;PMS_P1;PMS_P2;Temp;Humidity;BMP_temperature;BMP_pressure;BME280_temperature;BME280_humidity;BME280_pressure;Samples;Min_cycle;Max_cycle;Signal;HPM_P1;HPM_P2
2020/12/09 00:02:06;;;;;;;31.90;25.60;;;;;;;;;;5071089;28;20092;-66
2020/12/09 00:04:32;;;;;;;32.15;27.30;;;;;;;;;;5073747;28;20023;-63
2020/12/09 00:06:57;;;;;;;28.75;25.65;;;;;;;;;;5075183;28;20120;-65
2020/12/09 00:09:22;;;;;;;30.03;26.13;;;;;;;;;;5075311;28;20195;-67
2020/12/09 00:11:51;;;;;;;33.40;28.02;;;;;;;;;;5074848;28;20262;-65
2020/12/09 00:14:16;;;;;;;31.38;26.83;;;;;;;;;;5073467;28;20111;-66
2020/12/09 00:16:41;;;;;;;29.92;26.63;;;;;;;;;;5075157;28;20044;-65
2020/12/09 00:19:07;;;;;;;33.85;27.15;;;;;;;;;;5074985;28;20247;-65
2020/12/09 00:21:32;;;;;;;32.65;28.30;;;;;;;;;;5074871;28;20024;-66
2020/12/09 00:23:58;;;;;;;34.35;29.23;;;;;;;;;;5074686;28;20020;-67
2020/12/09 00:26:24;;;;;;;34.53;28.58;;;;;;;;;;5074688;28;20021;-65
2020/12/09 00:28:50;;;;;;;37.42;30.92;;;;;;;;;;5074708;28;20025;-68
2020/12/09 00:31:16;;;;;;;36.38;29.27;;;;;;;;;;5074397;28;20024;-66
2020/12/09 00:33:42;;;;;;;33.35;28.88;;;;;;;;;;5074030;28;20017;-65
2020/12/09 00:36:07;;;;;;;33.97;27.80;;;;;;;;;;5074191;28;20207;-65
2020/12/09 00:38:32;;;;;;;34.25;29.92;;;;;;;;;;5074115;28;20020;-63
2020/12/09 00:40:57;;;;;;;35.25;29.40;;;;;;;;;;5074865;28;20078;-64
2020/12/09 00:43:22;;;;;;;35.07;30.23;;;;;;;;;;5074069;28;20013;-66
2020/12/09 00:45:47;;;;;;;36.30;30.23;;;;;;;;;;5074398;28;20342;-63
2020/12/09 00:48:13;;;;;;;42.90;30.20;;;;;;;;;;5074456;28;20033;-63
2020/12/09 00:50:38;;;;;;;37.45;29.55;;;;;;;;;;5074519;28;20255;-66
2020/12/09 00:53:03;;;;;;;37.33;29.45;;;;;;;;;;5073982;28;20535;-66
2020/12/09 00:55:28;;;;;;;35.13;27.73;;;;;;;;;;5074234;28;20454;-65
2020/12/09 00:57:54;;;;;;;36.55;29.00;;;;;;;;;;5074246;28;20044;-67
2020/12/09 01:00:19;;;;;;;38.78;30.67;;;;;;;;;;5073712;28;20040;-65
2020/12/09 01:02:44;;;;;;;36.60;29.48;;;;;;;;;;5074236;28;20086;-64
2020/12/09 01:05:10;;;;;;;35.30;29.25;;;;;;;;;;5074359;28;20032;-67
2020/12/09 01:07:36;;;;;;;39.42;33.30;;;;;;;;;;5074501;28;20040;-66
2020/12/09 01:10:02;;;;;;;33.60;29.52;;;;;;;;;;5073964;28;20442;-67
2020/12/09 01:12:27;;;;;;;36.17;28.00;;;;;;;;;;5073562;28;20042;-66
2020/12/09 01:14:52;;;;;;;35.70;28.00;;;;;;;;;;5072915;28;20020;-66
2020/12/09 01:17:18;;;;;;;35.40;29.65;;;;;;;;;;5073449;28;20620;-62
2020/12/09 01:19:43;;;;;;;33.30;28.15;;;;;;;;;;5073683;28;20017;-65
2020/12/09 01:22:08;;;;;;;34.20;29.75;;;;;;;;;;5073360;28;20501;-62
2020/12/09 01:24:34;;;;;;;37.42;30.30;;;;;;;;;;5073787;28;20096;-62
2020/12/09 01:26:59;;;;;;;33.75;27.70;;;;;;;;;;5073395;28;20433;-69
2020/12/09 01:29:24;;;;;;;40.25;30.15;;;;;;;;;;5073603;28;20094;-66
2020/12/09 01:31:55;;;;;;;35.72;29.70;;;;;;;;;;5073407;28;20029;-66
2020/12/09 01:34:20;;;;;;;33.63;28.90;;;;;;;;;;5073655;28;20050;-64
2020/12/09 01:36:45;;;;;;;38.92;30.13;;;;;;;;;;5073323;28;20021;-64
2020/12/09 01:39:10;;;;;;;35.50;29.92;;;;;;;;;;5073522;28;20031;-66
2020/12/09 01:41:36;;;;;;;34.85;29.17;;;;;;;;;;5073397;28;20078;-66
2020/12/09 01:44:01;;;;;;;36.78;28.52;;;;;;;;;;5073407;28;20020;-62
2020/12/09 01:46:30;;;;;;;33.55;27.83;;;;;;;;;;5073066;28;20031;-66
2020/12/09 01:48:56;;;;;;;33.38;27.90;;;;;;;;;;5073075;28;20077;-66
2020/12/09 01:51:23;;;;;;;33.17;26.73;;;;;;;;;;5072767;28;20100;-66
2020/12/09 01:53:49;;;;;;;32.72;27.45;;;;;;;;;;5072897;28;20029;-68
2020/12/09 01:56:14;;;;;;;33.05;27.30;;;;;;;;;;5072920;28;20062;-65
2020/12/09 01:58:39;;;;;;;31.67;26.20;;;;;;;;;;5073120;28;20035;-66
2020/12/09 02:01:04;;;;;;;32.57;26.73;;;;;;;;;;5072888;28;20294;-63
2020/12/09 02:03:29;;;;;;;34.83;28.27;;;;;;;;;;5073081;28;20267;-64
2020/12/09 02:05:54;;;;;;;35.53;27.95;;;;;;;;;;5072953;28;20328;-66
2020/12/09 02:08:20;;;;;;;37.47;29.97;;;;;;;;;;5073004;28;20389;-66
2020/12/09 02:10:54;;;;;;;38.38;28.38;;;;;;;;;;5073312;28;20333;-67
2020/12/09 02:13:19;;;;;;;32.58;27.08;;;;;;;;;;5072415;28;20032;-67
2020/12/09 02:15:44;;;;;;;36.33;28.00;;;;;;;;;;5073161;28;20099;-66
2020/12/09 02:18:09;;;;;;;37.83;29.27;;;;;;;;;;5072995;28;20395;-67
2020/12/09 02:20:34;;;;;;;35.22;27.70;;;;;;;;;;5073106;28;20074;-64
2020/12/09 02:23:00;;;;;;;31.73;27.47;;;;;;;;;;5072009;28;20025;-63
2020/12/09 02:25:25;;;;;;;36.80;26.88;;;;;;;;;;5072422;28;20297;-64
2020/12/09 02:27:50;;;;;;;39.67;27.38;;;;;;;;;;5072160;28;20055;-66
2020/12/09 02:30:15;;;;;;;33.90;26.55;;;;;;;;;;5072698;28;20145;-66
2020/12/09 02:32:40;;;;;;;31.88;25.50;;;;;;;;;;5072166;28;20047;-65
2020/12/09 02:35:06;;;;;;;29.25;25.25;;;;;;;;;;5072322;28;20012;-68
2020/12/09 02:37:31;;;;;;;29.02;25.92;;;;;;;;;;5071307;28;20099;-66
2020/12/09 02:39:57;;;;;;;37.97;26.02;;;;;;;;;;5072286;28;20036;-65
2020/12/09 02:42:22;;;;;;;31.65;25.60;;;;;;;;;;5070533;28;20022;-66
2020/12/09 02:44:47;;;;;;;30.45;25.00;;;;;;;;;;5072603;28;20032;-66
2020/12/09 02:47:12;;;;;;;34.20;25.77;;;;;;;;;;5072295;28;20104;-67
2020/12/09 02:49:37;;;;;;;33.40;26.23;;;;;;;;;;5072322;28;20485;-66
2020/12/09 02:52:02;;;;;;;36.00;27.30;;;;;;;;;;5072123;28;20262;-68
2020/12/09 02:54:28;;;;;;;33.03;26.70;;;;;;;;;;5071983;28;20461;-67
2020/12/09 02:56:53;;;;;;;31.13;25.43;;;;;;;;;;5071639;28;20255;-64
2020/12/09 02:59:18;;;;;;;30.03;24.77;;;;;;;;;;5071717;28;20350;-66
2020/12/09 03:01:43;;;;;;;28.73;24.33;;;;;;;;;;5070110;28;20259;-65
2020/12/09 03:04:08;;;;;;;32.77;24.50;;;;;;;;;;5072360;28;20316;-67
2020/12/09 03:06:34;;;;;;;30.60;24.03;;;;;;;;;;5071898;28;20365;-69
2020/12/09 03:08:59;;;;;;;34.47;27.52;;;;;;;;;;5071942;28;20673;-66
2020/12/09 03:11:25;;;;;;;37.33;28.75;;;;;;;;;;5071365;28;20376;-68
2020/12/09 03:13:50;;;;;;;38.88;29.30;;;;;;;;;;5071534;28;20024;-68
2020/12/09 03:16:15;;;;;;;39.97;30.02;;;;;;;;;;5071635;28;20087;-68
2020/12/09 03:18:40;;;;;;;40.03;30.92;;;;;;;;;;5071599;28;20052;-66
2020/12/09 03:21:06;;;;;;;42.45;33.33;;;;;;;;;;5071685;28;20070;-65
2020/12/09 03:23:32;;;;;;;42.85;31.58;;;;;;;;;;5071379;28;20048;-66
2020/12/09 03:25:58;;;;;;;43.72;34.65;;;;;;;;;;5071395;28;20016;-65
2020/12/09 03:28:23;;;;;;;43.87;33.57;;;;;;;;;;5071576;28;20404;-69
2020/12/09 03:30:48;;;;;;;40.70;33.08;;;;;;;;;;5071507;28;20290;-68
2020/12/09 03:33:13;;;;;;;45.17;34.77;;;;;;;;;;5071408;28;20074;-67
2020/12/09 03:35:38;;;;;;;47.13;35.22;;;;;;;;;;5071552;28;20273;-67
2020/12/09 03:38:03;;;;;;;40.95;32.75;;;;;;;;;;5070902;28;20017;-65
2020/12/09 03:40:29;;;;;;;41.05;34.80;;;;;;;;;;5071589;28;20012;-67
2020/12/09 03:42:54;;;;;;;41.80;32.13;;;;;;;;;;5080154;28;20086;-63
2020/12/09 03:45:22;;;;;;;43.83;32.73;;;;;;;;;;5081321;28;20020;-64
2020/12/09 03:47:47;;;;;;;44.60;33.90;;;;;;;;;;5083815;28;20243;-64
2020/12/09 03:50:12;;;;;;;39.28;31.90;;;;;;;;;;5080010;28;20048;-68
2020/12/09 03:52:38;;;;;;;42.47;33.78;;;;;;;;;;5071325;28;20331;-65
2020/12/09 03:55:03;;;;;;;41.42;33.10;;;;;;;;;;5071776;28;20017;-67
2020/12/09 03:57:28;;;;;;;38.65;31.38;;;;;;;;;;5071387;28;20445;-64
2020/12/09 03:59:53;;;;;;;41.43;32.83;;;;;;;;;;5071537;28;20029;-67
2020/12/09 04:02:18;;;;;;;39.45;32.80;;;;;;;;;;5072067;28;20266;-66
2020/12/09 04:04:43;;;;;;;38.03;31.25;;;;;;;;;;5071694;28;20420;-67
2020/12/09 04:07:09;;;;;;;40.63;32.40;;;;;;;;;;5071571;28;20039;-65
2020/12/09 04:09:34;;;;;;;42.53;31.20;;;;;;;;;;5072096;28;20017;-66
2020/12/09 04:11:59;;;;;;;40.53;31.92;;;;;;;;;;5070961;28;20254;-67
2020/12/09 04:14:25;;;;;;;37.93;31.77;;;;;;;;;;5071190;28;20027;-67
2020/12/09 04:16:50;;;;;;;38.80;31.35;;;;;;;;;;5071178;28;20278;-66
2020/12/09 04:19:15;;;;;;;40.00;33.43;;;;;;;;;;5071416;28;20347;-68
2020/12/09 04:21:42;;;;;;;43.95;32.55;;;;;;;;;;5070918;28;20293;-65
2020/12/09 04:24:07;;;;;;;39.03;33.35;;;;;;;;;;5071240;28;20077;-63
2020/12/09 04:26:32;;;;;;;43.58;34.38;;;;;;;;;;5070906;28;20028;-66
2020/12/09 04:28:57;;;;;;;39.58;33.22;;;;;;;;;;5071225;28;20094;-69
2020/12/09 04:31:23;;;;;;;40.17;32.92;;;;;;;;;;5070985;28;20056;-67
2020/12/09 04:34:00;;;;;;;41.50;34.20;;;;;;;;;;5071101;28;20036;-69
2020/12/09 04:36:26;;;;;;;41.13;33.55;;;;;;;;;;5070186;28;20274;-67
2020/12/09 04:38:51;;;;;;;44.38;35.03;;;;;;;;;;5070932;28;20040;-67
2020/12/09 04:41:16;;;;;;;45.15;36.33;;;;;;;;;;5071053;28;20477;-68
2020/12/09 04:43:41;;;;;;;42.90;34.00;;;;;;;;;;5070728;28;20016;-67
2020/12/09 04:46:07;;;;;;;42.97;32.40;;;;;;;;;;5071105;28;20024;-68
2020/12/09 04:48:36;;;;;;;44.22;35.28;;;;;;;;;;5071275;28;20017;-69
2020/12/09 04:51:04;;;;;;;41.08;34.75;;;;;;;;;;5074173;28;20477;-68
2020/12/09 04:53:30;;;;;;;45.30;35.40;;;;;;;;;;5074691;28;20032;-67
2020/12/09 04:55:56;;;;;;;47.22;36.55;;;;;;;;;;5074922;28;20403;-66
2020/12/09 04:58:27;;;;;;;42.40;34.78;;;;;;;;;;5075051;28;20113;-67
2020/12/09 05:01:02;;;;;;;44.40;34.60;;;;;;;;;;5076007;28;20080;-68
2020/12/09 05:03:33;;;;;;;45.50;35.72;;;;;;;;;;5075704;28;20113;-68
2020/12/09 05:05:58;;;;;;;41.33;34.78;;;;;;;;;;5075304;28;20082;-66
2020/12/09 05:08:27;;;;;;;44.75;34.85;;;;;;;;;;5074404;28;20036;-65
2020/12/09 05:10:52;;;;;;;46.17;36.65;;;;;;;;;;5074804;28;20028;-68
2020/12/09 05:13:27;;;;;;;48.80;36.28;;;;;;;;;;5074626;28;20017;-68
2020/12/09 05:16:02;;;;;;;43.22;34.55;;;;;;;;;;5074483;28;20091;-68
2020/12/09 05:18:34;;;;;;;41.80;34.63;;;;;;;;;;5079131;28;20076;-68
2020/12/09 05:21:06;;;;;;;43.83;35.15;;;;;;;;;;5074761;28;20012;-69
2020/12/09 05:23:31;;;;;;;40.80;33.20;;;;;;;;;;5074299;28;20047;-70
2020/12/09 05:25:56;;;;;;;40.42;34.33;;;;;;;;;;5074298;28;20063;-68
2020/12/09 05:28:22;;;;;;;41.73;36.07;;;;;;;;;;5072677;28;20472;-69
2020/12/09 05:30:48;;;;;;;42.47;34.07;;;;;;;;;;5074207;28;20255;-67
2020/12/09 05:33:14;;;;;;;44.50;34.92;;;;;;;;;;5073883;28;20283;-67
2020/12/09 05:35:40;;;;;;;42.75;32.85;;;;;;;;;;5079632;28;20021;-66
2020/12/09 05:38:10;;;;;;;41.97;32.90;;;;;;;;;;5077834;28;20189;-66
2020/12/09 05:40:35;;;;;;;39.83;32.65;;;;;;;;;;5079295;28;20450;-67
2020/12/09 05:43:00;;;;;;;40.60;31.92;;;;;;;;;;5074912;28;20032;-69
2020/12/09 05:45:26;;;;;;;40.27;32.40;;;;;;;;;;5074117;28;20048;-69
2020/12/09 05:48:09;;;;;;;38.13;32.55;;;;;;;;;;5073966;28;20247;-69
2020/12/09 05:50:54;;;;;;;41.25;33.45;;;;;;;;;;5074208;28;20111;-66
2020/12/09 05:53:23;;;;;;;37.28;32.25;;;;;;;;;;5072099;28;20056;-68
2020/12/09 05:55:49;;;;;;;42.35;34.60;;;;;;;;;;5073885;28;20052;-69
2020/12/09 05:58:18;;;;;;;42.45;34.63;;;;;;;;;;5077312;28;20031;-66
2020/12/09 06:01:01;;;;;;;43.05;33.72;;;;;;;;;;5078363;28;20025;-66
2020/12/09 06:03:27;;;;;;;44.50;35.30;;;;;;;;;;5074176;28;20032;-68
2020/12/09 06:06:06;;;;;;;51.28;35.90;;;;;;;;;;5073422;28;20458;-68
2020/12/09 06:08:36;;;;;;;46.67;37.78;;;;;;;;;;5071805;28;20043;-69
2020/12/09 06:11:01;;;;;;;44.53;34.97;;;;;;;;;;5073119;28;20127;-67
2020/12/09 06:13:30;;;;;;;52.58;37.15;;;;;;;;;;5072654;28;20469;-69
2020/12/09 06:15:56;;;;;;;50.78;38.33;;;;;;;;;;5073078;28;20117;-67
2020/12/09 06:18:22;;;;;;;45.75;36.13;;;;;;;;;;5072847;28;20016;-71
2020/12/09 06:20:47;;;;;;;52.55;38.67;;;;;;;;;;5073150;28;20009;-70
2020/12/09 06:23:13;;;;;;;47.33;37.67;;;;;;;;;;5072791;28;20050;-69
2020/12/09 06:25:39;;;;;;;48.75;37.33;;;;;;;;;;5073218;28;20023;-68
2020/12/09 06:28:10;;;;;;;47.30;37.28;;;;;;;;;;5073057;28;20386;-68
2020/12/09 06:30:36;;;;;;;48.35;37.60;;;;;;;;;;5073124;28;20016;-68
2020/12/09 06:33:01;;;;;;;51.28;38.70;;;;;;;;;;5072796;28;20021;-68
2020/12/09 06:35:26;;;;;;;48.05;37.60;;;;;;;;;;5072805;28;20103;-68
2020/12/09 06:38:09;;;;;;;47.63;37.05;;;;;;;;;;5072781;28;20095;-68
2020/12/09 06:40:36;;;;;;;51.28;38.10;;;;;;;;;;5072492;28;20372;-68
2020/12/09 06:43:13;;;;;;;49.88;35.92;;;;;;;;;;5070615;28;20040;-66
2020/12/09 06:45:45;;;;;;;46.17;35.00;;;;;;;;;;5072312;28;20036;-67
2020/12/09 06:48:15;;;;;;;50.28;35.20;;;;;;;;;;5072568;28;20335;-68
2020/12/09 06:50:44;;;;;;;43.85;34.22;;;;;;;;;;5072723;28;20062;-69
2020/12/09 06:53:12;;;;;;;49.28;38.10;;;;;;;;;;5072006;28;20111;-69
2020/12/09 06:55:38;;;;;;;46.55;36.63;;;;;;;;;;5072252;28;20019;-68
2020/12/09 06:58:21;;;;;;;46.28;36.63;;;;;;;;;;5072449;28;20430;-67
2020/12/09 07:01:06;;;;;;;55.28;38.70;;;;;;;;;;5056109;28;20063;-68
2020/12/09 07:03:36;;;;;;;42.33;34.25;;;;;;;;;;5051512;28;20406;-69
2020/12/09 07:06:21;;;;;;;44.25;33.80;;;;;;;;;;5053021;28;20025;-69
2020/12/09 07:08:47;;;;;;;49.08;37.55;;;;;;;;;;5052238;28;20028;-69
2020/12/09 07:11:12;;;;;;;48.97;35.65;;;;;;;;;;5052347;28;20029;-66
2020/12/09 07:13:38;;;;;;;44.53;35.20;;;;;;;;;;5052141;28;20032;-66
2020/12/09 07:16:03;;;;;;;48.05;37.85;;;;;;;;;;5051905;28;20017;-66
2020/12/09 07:18:28;;;;;;;49.28;37.55;;;;;;;;;;5052550;28;20059;-66
2020/12/09 07:20:55;;;;;;;48.35;37.75;;;;;;;;;;5052301;28;20106;-65
2020/12/09 07:23:20;;;;;;;50.33;38.25;;;;;;;;;;5052098;28;20224;-66
2020/12/09 07:25:45;;;;;;;45.05;37.28;;;;;;;;;;5051934;28;20451;-66
2020/12/09 07:28:11;;;;;;;53.87;39.00;;;;;;;;;;5052214;28;20039;-65
2020/12/09 07:30:36;;;;;;;47.75;37.08;;;;;;;;;;5052322;28;20254;-66
2020/12/09 07:33:02;;;;;;;52.00;39.15;;;;;;;;;;5051611;28;20049;-68
2020/12/09 07:35:27;;;;;;;49.40;37.72;;;;;;;;;;5051786;28;20074;-68
2020/12/09 07:37:55;;;;;;;51.70;37.90;;;;;;;;;;5051987;28;20024;-69
2020/12/09 07:40:25;;;;;;;49.47;37.08;;;;;;;;;;5051943;28;20063;-67
2020/12/09 07:42:57;;;;;;;46.13;36.65;;;;;;;;;;5051789;28;20029;-70
2020/12/09 07:45:22;;;;;;;50.70;37.92;;;;;;;;;;5051856;28;20021;-72
2020/12/09 07:47:47;;;;;;;47.95;35.67;;;;;;;;;;5051851;28;20331;-73
2020/12/09 07:50:13;;;;;;;50.00;36.38;;;;;;;;;;5052166;28;20025;-71
2020/12/09 07:52:39;;;;;;;46.45;37.13;;;;;;;;;;5056420;28;20158;-68
2020/12/09 07:55:06;;;;;;;47.28;37.17;;;;;;;;;;5056381;28;20323;-71
2020/12/09 07:57:33;;;;;;;48.33;35.22;;;;;;;;;;5052353;28;20021;-70
2020/12/09 07:59:59;;;;;;;46.83;35.10;;;;;;;;;;5051827;28;20021;-71
2020/12/09 08:02:25;;;;;;;40.83;34.28;;;;;;;;;;5051614;28;20331;-66
2020/12/09 08:05:09;;;;;;;38.53;31.67;;;;;;;;;;5051809;28;20032;-68
2020/12/09 08:07:34;;;;;;;40.60;32.00;;;;;;;;;;5051923;28;20040;-68
2020/12/09 08:10:07;;;;;;;43.25;33.25;;;;;;;;;;5052150;28;20350;-71
2020/12/09 08:12:33;;;;;;;43.22;32.65;;;;;;;;;;5051752;28;20113;-69
2020/12/09 08:14:58;;;;;;;40.20;32.15;;;;;;;;;;5051956;28;20032;-69
2020/12/09 08:17:27;;;;;;;49.20;33.57;;;;;;;;;;5051708;28;20049;-70
2020/12/09 08:20:06;;;;;;;40.70;32.72;;;;;;;;;;5051743;28;20248;-68
2020/12/09 08:22:31;;;;;;;41.78;31.85;;;;;;;;;;5051602;28;20028;-67
2020/12/09 08:25:01;;;;;;;43.25;33.72;;;;;;;;;;5053225;28;20021;-71
2020/12/09 08:27:26;;;;;;;45.03;34.95;;;;;;;;;;5055698;28;20455;-71
2020/12/09 08:29:51;;;;;;;39.83;32.80;;;;;;;;;;5055694;28;20025;-71
2020/12/09 08:32:16;;;;;;;39.03;31.70;;;;;;;;;;5055269;28;20032;-66
2020/12/09 08:34:41;;;;;;;40.07;33.00;;;;;;;;;;5055217;28;20382;-70
2020/12/09 08:37:16;;;;;;;39.33;32.03;;;;;;;;;;5055484;28;20312;-68
2020/12/09 08:39:41;;;;;;;41.22;33.35;;;;;;;;;;5055433;28;20275;-71
2020/12/09 08:42:06;;;;;;;40.53;31.90;;;;;;;;;;5054992;28;20013;-71
2020/12/09 08:44:31;;;;;;;39.50;31.98;;;;;;;;;;5054940;28;20268;-73
2020/12/09 08:46:56;;;;;;;42.17;33.57;;;;;;;;;;5054917;28;20020;-73
2020/12/09 08:49:21;;;;;;;41.37;33.27;;;;;;;;;;5055221;28;20788;-70
2020/12/09 08:51:47;;;;;;;43.93;33.87;;;;;;;;;;5055075;28;20266;-69
2020/12/09 08:54:13;;;;;;;38.23;32.40;;;;;;;;;;5054717;28;20753;-69
2020/12/09 08:56:38;;;;;;;44.00;32.75;;;;;;;;;;5054702;28;20255;-73
2020/12/09 08:59:03;;;;;;;41.28;32.17;;;;;;;;;;5054800;28;20016;-71
2020/12/09 09:01:28;;;;;;;40.90;31.90;;;;;;;;;;5054738;28;20021;-70
2020/12/09 09:03:57;;;;;;;41.42;31.58;;;;;;;;;;5054773;28;20039;-72
2020/12/09 09:06:22;;;;;;;34.13;30.15;;;;;;;;;;5054432;28;20025;-71
2020/12/09 09:08:47;;;;;;;39.08;32.15;;;;;;;;;;5054985;28;20078;-70
2020/12/09 09:11:12;;;;;;;37.63;30.30;;;;;;;;;;5054603;28;20029;-71
2020/12/09 09:13:38;;;;;;;36.05;30.95;;;;;;;;;;5054199;28;20275;-72
2020/12/09 09:16:07;;;;;;;39.55;31.48;;;;;;;;;;5054578;28;20028;-70
2020/12/09 09:18:32;;;;;;;37.42;30.48;;;;;;;;;;5059077;28;20021;-71
2020/12/09 09:20:57;;;;;;;35.63;29.47;;;;;;;;;;5053268;28;20021;-71
2020/12/09 09:23:22;;;;;;;38.37;31.07;;;;;;;;;;5054197;28;20251;-71
2020/12/09 09:25:48;;;;;;;37.40;30.00;;;;;;;;;;5054856;28;20274;-76
2020/12/09 09:28:13;;;;;;;38.83;31.77;;;;;;;;;;5054366;28;20270;-73
2020/12/09 09:30:38;;;;;;;36.57;30.27;;;;;;;;;;5054496;28;20101;-72
2020/12/09 09:33:03;;;;;;;37.78;30.95;;;;;;;;;;5053666;28;20283;-72
2020/12/09 09:35:28;;;;;;;41.87;31.17;;;;;;;;;;5053606;28;20073;-71
2020/12/09 09:37:54;;;;;;;41.58;32.03;;;;;;;;;;5053223;28;20351;-71
2020/12/09 09:40:19;;;;;;;42.45;30.83;;;;;;;;;;5053938;28;20052;-72
2020/12/09 09:42:44;;;;;;;40.47;32.67;;;;;;;;;;5053638;28;20020;-71
2020/12/09 09:45:11;;;;;;;39.53;30.75;;;;;;;;;;5053734;28;20293;-73
2020/12/09 09:47:36;;;;;;;39.97;31.27;;;;;;;;;;5054595;28;20025;-75
2020/12/09 09:50:06;;;;;;;41.38;31.52;;;;;;;;;;5058909;28;20021;-72
2020/12/09 09:52:32;;;;;;;39.15;31.17;;;;;;;;;;5072819;28;20410;-69
2020/12/09 09:54:57;;;;;;;35.70;30.83;;;;;;;;;;5073383;28;20078;-74
2020/12/09 09:57:22;;;;;;;41.37;31.07;;;;;;;;;;5072288;28;20028;-72
2020/12/09 09:59:47;;;;;;;41.40;31.30;;;;;;;;;;5073274;28;20300;-73
2020/12/09 10:02:12;;;;;;;39.00;30.52;;;;;;;;;;5064660;28;20378;-65
2020/12/09 10:04:38;;;;;;;40.47;31.95;;;;;;;;;;5071724;28;20043;-69
2020/12/09 10:07:03;;;;;;;40.33;32.73;;;;;;;;;;5072845;28;20161;-71
2020/12/09 10:09:28;;;;;;;41.22;32.58;;;;;;;;;;5072747;28;20251;-71
2020/12/09 10:11:53;;;;;;;39.00;30.80;;;;;;;;;;5072950;28;20027;-74
2020/12/09 10:14:18;;;;;;;36.17;30.80;;;;;;;;;;5073064;28;20114;-71
2020/12/09 10:16:45;;;;;;;38.93;29.83;;;;;;;;;;5068005;28;20142;-74
2020/12/09 10:19:11;;;;;;;40.10;30.73;;;;;;;;;;5069843;28;20250;-75
2020/12/09 10:21:36;;;;;;;36.70;29.95;;;;;;;;;;5072942;28;20873;-72
2020/12/09 10:24:03;;;;;;;36.63;29.50;;;;;;;;;;5073200;28;20027;-75
2020/12/09 10:26:32;;;;;;;42.45;31.23;;;;;;;;;;5072945;28;20043;-76
2020/12/09 10:29:01;;;;;;;41.90;31.27;;;;;;;;;;5073181;28;20020;-72
2020/12/09 10:31:32;;;;;;;36.78;29.02;;;;;;;;;;5072799;28;20028;-76
2020/12/09 10:33:58;;;;;;;38.92;29.70;;;;;;;;;;5080929;28;20074;-71
2020/12/09 10:36:23;;;;;;;36.22;30.00;;;;;;;;;;5076464;28;20374;-73
2020/12/09 10:38:48;;;;;;;36.17;30.23;;;;;;;;;;5073504;28;20443;-74
2020/12/09 10:41:13;;;;;;;37.03;29.70;;;;;;;;;;5072999;28;20063;-69
2020/12/09 10:43:39;;;;;;;34.83;29.40;;;;;;;;;;5072482;28;20020;-72
2020/12/09 10:46:04;;;;;;;37.50;29.17;;;;;;;;;;5072730;28;20755;-70
2020/12/09 10:48:29;;;;;;;39.33;30.13;;;;;;;;;;5072278;28;20498;-68
2020/12/09 10:50:54;;;;;;;36.97;30.63;;;;;;;;;;5073194;28;20022;-75
2020/12/09 10:53:20;;;;;;;39.80;30.90;;;;;;;;;;5071982;28;20093;-70
2020/12/09 10:55:45;;;;;;;38.40;30.13;;;;;;;;;;5072424;28;20338;-70
2020/12/09 10:58:10;;;;;;;34.80;29.60;;;;;;;;;;5072721;28;20251;-69
2020/12/09 11:00:35;;;;;;;38.20;29.63;;;;;;;;;;5071306;28;20255;-75
2020/12/09 11:03:00;;;;;;;36.17;29.98;;;;;;;;;;5072758;28;20363;-73
2020/12/09 11:05:25;;;;;;;36.83;30.05;;;;;;;;;;5071309;28;20500;-70
2020/12/09 11:07:51;;;;;;;35.88;27.05;;;;;;;;;;5062186;28;20036;-73
2020/12/09 11:10:16;;;;;;;36.83;29.42;;;;;;;;;;5053124;28;20017;-72
2020/12/09 11:12:41;;;;;;;35.23;29.27;;;;;;;;;;5052587;28;20492;-69
2020/12/09 11:15:06;;;;;;;36.83;30.73;;;;;;;;;;5052660;28;20287;-68
2020/12/09 11:17:33;;;;;;;35.00;30.67;;;;;;;;;;5064611;28;20027;-72
2020/12/09 11:19:58;;;;;;;39.25;29.67;;;;;;;;;;5057833;28;20259;-72
2020/12/09 11:22:23;;;;;;;33.10;29.50;;;;;;;;;;5052281;28;20466;-73
2020/12/09 11:24:48;;;;;;;33.30;28.10;;;;;;;;;;5052797;28;20251;-67
2020/12/09 11:27:14;;;;;;;35.53;28.13;;;;;;;;;;5070329;28;20754;-69
2020/12/09 11:29:40;;;;;;;34.17;28.90;;;;;;;;;;5072141;28;20102;-68
2020/12/09 11:32:05;;;;;;;37.22;30.10;;;;;;;;;;5082285;28;20072;-72
2020/12/09 11:34:30;;;;;;;35.17;30.23;;;;;;;;;;5091937;28;20067;-70
2020/12/09 11:37:03;;;;;;;35.97;29.15;;;;;;;;;;5092449;28;20254;-70
2020/12/09 11:39:28;;;;;;;36.58;29.75;;;;;;;;;;5091238;28;20020;-70
2020/12/09 11:41:57;;;;;;;31.63;28.02;;;;;;;;;;5091839;28;20046;-72
2020/12/09 11:44:22;;;;;;;34.78;28.48;;;;;;;;;;5069895;28;20303;-66
2020/12/09 11:46:47;;;;;;;35.97;29.63;;;;;;;;;;5067121;28;20032;-70
2020/12/09 11:49:12;;;;;;;37.10;31.27;;;;;;;;;;5067388;28;20258;-71
2020/12/09 11:51:37;;;;;;;35.78;28.95;;;;;;;;;;5071777;28;20259;-71
2020/12/09 11:54:02;;;;;;;32.53;27.45;;;;;;;;;;5072162;28;20073;-69
2020/12/09 11:56:28;;;;;;;34.97;28.73;;;;;;;;;;5072010;28;20073;-72
2020/12/09 11:58:53;;;;;;;34.25;27.23;;;;;;;;;;5072180;28;20633;-70
2020/12/09 12:01:19;;;;;;;27.60;24.20;;;;;;;;;;5075227;28;20351;-68
2020/12/09 12:03:46;;;;;;;30.15;23.95;;;;;;;;;;5075562;28;20349;-69
2020/12/09 12:06:21;;;;;;;28.05;22.40;;;;;;;;;;5075540;28;20132;-72
2020/12/09 12:08:47;;;;;;;27.27;21.00;;;;;;;;;;5074832;28;20023;-72
2020/12/09 12:11:18;;;;;;;24.52;20.90;;;;;;;;;;5069246;28;20024;-71
2020/12/09 12:13:44;;;;;;;22.92;19.73;;;;;;;;;;5075176;28;20025;-72
2020/12/09 12:16:19;;;;;;;30.92;21.02;;;;;;;;;;5075863;28;20016;-72
2020/12/09 12:18:45;;;;;;;24.27;20.63;;;;;;;;;;5076012;28;20021;-69
2020/12/09 12:21:11;;;;;;;26.85;22.23;;;;;;;;;;5076124;28;20027;-75
2020/12/09 12:23:36;;;;;;;21.17;18.15;;;;;;;;;;5074688;28;20017;-75
2020/12/09 12:26:01;;;;;;;23.80;19.20;;;;;;;;;;5075207;28;20487;-71
2020/12/09 12:28:28;;;;;;;24.80;20.37;;;;;;;;;;5075976;28;20119;-72
2020/12/09 12:30:53;;;;;;;27.00;21.10;;;;;;;;;;5075495;28;20290;-71
2020/12/09 12:33:18;;;;;;;24.50;19.05;;;;;;;;;;5073558;28;20111;-70
2020/12/09 12:35:43;;;;;;;24.87;20.53;;;;;;;;;;5075539;28;20111;-73
2020/12/09 12:38:08;;;;;;;24.13;19.00;;;;;;;;;;5074140;28;20255;-73
2020/12/09 12:40:33;;;;;;;22.23;18.97;;;;;;;;;;5075581;28;20254;-72
2020/12/09 12:42:59;;;;;;;20.23;17.63;;;;;;;;;;5075738;28;20345;-74
2020/12/09 12:45:24;;;;;;;22.25;19.60;;;;;;;;;;5075291;28;20266;-72
2020/12/09 12:47:50;;;;;;;21.07;18.10;;;;;;;;;;5073954;28;20059;-72
2020/12/09 12:50:15;;;;;;;22.17;19.17;;;;;;;;;;5075360;28;20255;-73
2020/12/09 12:52:41;;;;;;;21.05;17.60;;;;;;;;;;5074508;28;20021;-71
2020/12/09 12:55:06;;;;;;;20.42;17.90;;;;;;;;;;5074955;28;20050;-72
2020/12/09 12:57:31;;;;;;;23.97;20.27;;;;;;;;;;5075047;28;20373;-71
2020/12/09 12:59:56;;;;;;;21.88;18.00;;;;;;;;;;5075040;28;20250;-73
2020/12/09 13:02:21;;;;;;;20.97;18.47;;;;;;;;;;5074788;28;20023;-73
2020/12/09 13:04:46;;;;;;;23.73;20.30;;;;;;;;;;5075080;28;20277;-69
2020/12/09 13:07:12;;;;;;;25.20;19.50;;;;;;;;;;5074993;28;20353;-69
2020/12/09 13:09:37;;;;;;;22.05;19.45;;;;;;;;;;5075111;28;20246;-74
2020/12/09 13:12:02;;;;;;;23.37;19.70;;;;;;;;;;5074534;28;20028;-71
2020/12/09 13:14:27;;;;;;;22.67;18.90;;;;;;;;;;5074672;28;20374;-73
2020/12/09 13:16:53;;;;;;;23.30;19.08;;;;;;;;;;5074882;28;20020;-73
2020/12/09 13:19:18;;;;;;;22.92;18.85;;;;;;;;;;5074672;28;20024;-71
2020/12/09 13:21:43;;;;;;;22.73;18.90;;;;;;;;;;5074683;28;20142;-71
2020/12/09 13:24:09;;;;;;;21.23;16.58;;;;;;;;;;5074798;28;20724;-70
2020/12/09 13:26:34;;;;;;;24.38;19.23;;;;;;;;;;5074473;28;20016;-73
2020/12/09 13:29:00;;;;;;;25.95;20.77;;;;;;;;;;5075068;28;20032;-69
2020/12/09 13:31:25;;;;;;;22.05;18.60;;;;;;;;;;5074112;28;20437;-72
2020/12/09 13:33:50;;;;;;;21.80;18.65;;;;;;;;;;5074862;28;20025;-71
2020/12/09 13:36:24;;;;;;;20.43;18.10;;;;;;;;;;5074811;28;20067;-71
2020/12/09 13:38:49;;;;;;;22.50;17.95;;;;;;;;;;5075105;28;20330;-69
2020/12/09 13:41:15;;;;;;;19.80;16.95;;;;;;;;;;5073705;28;20091;-67
2020/12/09 13:43:40;;;;;;;23.35;17.90;;;;;;;;;;5074077;28;20032;-72
2020/12/09 13:46:05;;;;;;;21.15;17.83;;;;;;;;;;5073849;28;20024;-70
2020/12/09 13:48:30;;;;;;;21.10;18.13;;;;;;;;;;5073762;28;20151;-68
2020/12/09 13:50:55;;;;;;;24.23;17.90;;;;;;;;;;5073973;28;20720;-69
2020/12/09 13:53:21;;;;;;;21.92;18.42;;;;;;;;;;5073095;28;20369;-69
2020/12/09 13:55:46;;;;;;;21.70;19.00;;;;;;;;;;5073592;28;20081;-67
2020/12/09 13:58:11;;;;;;;20.43;16.80;;;;;;;;;;5066558;28;20020;-71
2020/12/09 14:00:36;;;;;;;21.08;17.80;;;;;;;;;;5073241;28;20255;-67
2020/12/09 14:03:01;;;;;;;20.80;17.83;;;;;;;;;;5073952;28;20027;-68
2020/12/09 14:05:27;;;;;;;21.73;17.70;;;;;;;;;;5073898;28;20454;-68
2020/12/09 14:07:52;;;;;;;24.30;18.63;;;;;;;;;;5073806;28;20263;-68
2020/12/09 14:10:17;;;;;;;26.25;20.52;;;;;;;;;;5073678;28;20329;-67
2020/12/09 14:12:42;;;;;;;22.08;18.92;;;;;;;;;;5074467;28;20462;-72